sensor_id;sensor_type;location;lat;lon;timestamp;P1;durP1;ratioP1;P2;durP2;ratioP2
61673;SDS011;47573;43.832;5.974;2023-05-10T00:04:37;328.77;;;248.10;;
61673;SDS011;47573;43.832;5.974;2023-05-10T00:11:17;326.73;;;245.83;;
61673;SDS011;47573;43.832;5.974;2023-05-10T00:17:59;332.33;;;249.10;;
61673;SDS011;47573;43.832;5.974;2023-05-10T00:24:40;329.07;;;247.77;;
61673;SDS011;47573;43.832;5.974;2023-05-10T00:31:20;308.73;;;235.90;;
61673;SDS011;47573;43.832;5.974;2023-05-10T00:38:02;315.90;;;235.13;;
61673;SDS011;47573;43.832;5.974;2023-05-10T00:44:43;313.60;;;238.03;;
61673;SDS011;47573;43.832;5.974;2023-05-10T00:51:23;307.03;;;232.40;;
61673;SDS011;47573;43.832;5.974;2023-05-10T00:58:06;300.08;;;226.63;;
61673;SDS011;47573;43.832;5.974;2023-05-10T01:04:46;298.53;;;222.40;;
61673;SDS011;47573;43.832;5.974;2023-05-10T01:11:27;284.77;;;211.30;;
61673;SDS011;47573;43.832;5.974;2023-05-10T01:18:09;287.70;;;215.20;;
61673;SDS011;47573;43.832;5.974;2023-05-10T01:24:56;286.13;;;212.63;;
61673;SDS011;47573;43.832;5.974;2023-05-10T01:32:04;284.45;;;211.30;;
61673;SDS011;47573;43.832;5.974;2023-05-10T01:39:02;276.67;;;204.20;;
61673;SDS011;47573;43.832;5.974;2023-05-10T01:45:54;268.48;;;196.10;;
61673;SDS011;47573;43.832;5.974;2023-05-10T01:52:42;262.20;;;191.48;;
61673;SDS011;47573;43.832;5.974;2023-05-10T01:59:28;261.42;;;189.57;;
61673;SDS011;47573;43.832;5.974;2023-05-10T02:06:11;249.23;;;179.88;;
61673;SDS011;47573;43.832;5.974;2023-05-10T02:12:56;243.25;;;173.73;;
61673;SDS011;47573;43.832;5.974;2023-05-10T02:19:40;236.43;;;171.25;;
61673;SDS011;47573;43.832;5.974;2023-05-10T02:26:22;237.18;;;167.48;;
61673;SDS011;47573;43.832;5.974;2023-05-10T02:33:06;234.90;;;164.02;;
61673;SDS011;47573;43.832;5.974;2023-05-10T02:39:47;219.27;;;153.65;;
61673;SDS011;47573;43.832;5.974;2023-05-10T02:46:30;219.90;;;152.88;;
61673;SDS011;47573;43.832;5.974;2023-05-10T02:53:14;211.82;;;146.88;;
61673;SDS011;47573;43.832;5.974;2023-05-10T02:59:57;215.80;;;148.82;;
61673;SDS011;47573;43.832;5.974;2023-05-10T03:06:38;213.07;;;146.70;;
61673;SDS011;47573;43.832;5.974;2023-05-10T03:13:23;205.65;;;145.25;;
61673;SDS011;47573;43.832;5.974;2023-05-10T03:20:12;202.63;;;142.57;;
61673;SDS011;47573;43.832;5.974;2023-05-10T03:27:00;202.70;;;140.30;;
61673;SDS011;47573;43.832;5.974;2023-05-10T03:33:49;196.90;;;136.37;;
61673;SDS011;47573;43.832;5.974;2023-05-10T03:40:31;184.38;;;129.63;;
61673;SDS011;47573;43.832;5.974;2023-05-10T03:47:11;180.57;;;129.53;;
61673;SDS011;47573;43.832;5.974;2023-05-10T03:53:53;182.98;;;124.93;;
61673;SDS011;47573;43.832;5.974;2023-05-10T04:00:33;176.23;;;123.93;;
61673;SDS011;47573;43.832;5.974;2023-05-10T04:07:14;177.73;;;121.77;;
61673;SDS011;47573;43.832;5.974;2023-05-10T04:13:56;171.32;;;119.95;;
61673;SDS011;47573;43.832;5.974;2023-05-10T04:20:36;162.07;;;114.28;;
61673;SDS011;47573;43.832;5.974;2023-05-10T04:27:17;162.70;;;113.90;;
61673;SDS011;47573;43.832;5.974;2023-05-10T04:33:58;154.37;;;110.13;;
61673;SDS011;47573;43.832;5.974;2023-05-10T04:40:39;156.30;;;108.38;;
61673;SDS011;47573;43.832;5.974;2023-05-10T04:47:20;144.73;;;102.13;;
61673;SDS011;47573;43.832;5.974;2023-05-10T04:54:01;146.77;;;102.82;;
61673;SDS011;47573;43.832;5.974;2023-05-10T05:00:42;286.27;;;148.77;;
61673;SDS011;47573;43.832;5.974;2023-05-10T05:07:23;150.50;;;84.27;;
61673;SDS011;47573;43.832;5.974;2023-05-10T05:14:05;109.07;;;55.50;;
61673;SDS011;47573;43.832;5.974;2023-05-10T05:20:45;78.13;;;41.17;;
61673;SDS011;47573;43.832;5.974;2023-05-10T05:27:25;77.20;;;41.40;;
61673;SDS011;47573;43.832;5.974;2023-05-10T05:34:07;48.33;;;33.03;;
61673;SDS011;47573;43.832;5.974;2023-05-10T05:40:48;44.72;;;30.95;;
61673;SDS011;47573;43.832;5.974;2023-05-10T05:47:28;48.27;;;31.23;;
61673;SDS011;47573;43.832;5.974;2023-05-10T05:54:10;41.58;;;28.38;;
61673;SDS011;47573;43.832;5.974;2023-05-10T06:00:51;34.38;;;23.83;;
61673;SDS011;47573;43.832;5.974;2023-05-10T06:07:32;31.02;;;21.63;;
61673;SDS011;47573;43.832;5.974;2023-05-10T06:14:14;173.03;;;92.80;;
61673;SDS011;47573;43.832;5.974;2023-05-10T06:20:54;122.00;;;65.73;;
61673;SDS011;47573;43.832;5.974;2023-05-10T06:27:35;78.80;;;45.63;;
61673;SDS011;47573;43.832;5.974;2023-05-10T06:34:16;62.30;;;36.77;;
61673;SDS011;47573;43.832;5.974;2023-05-10T06:40:57;56.55;;;31.10;;
61673;SDS011;47573;43.832;5.974;2023-05-10T06:47:37;49.90;;;30.27;;
61673;SDS011;47573;43.832;5.974;2023-05-10T06:54:19;50.28;;;30.13;;
61673;SDS011;47573;43.832;5.974;2023-05-10T07:01:03;52.15;;;31.15;;
61673;SDS011;47573;43.832;5.974;2023-05-10T07:07:44;52.13;;;30.65;;
61673;SDS011;47573;43.832;5.974;2023-05-10T07:14:26;48.13;;;29.97;;
61673;SDS011;47573;43.832;5.974;2023-05-10T07:21:06;43.13;;;26.20;;
61673;SDS011;47573;43.832;5.974;2023-05-10T07:27:46;36.47;;;22.43;;
61673;SDS011;47573;43.832;5.974;2023-05-10T07:34:28;32.13;;;20.53;;
61673;SDS011;47573;43.832;5.974;2023-05-10T07:41:09;29.73;;;17.70;;
61673;SDS011;47573;43.832;5.974;2023-05-10T07:47:51;24.52;;;15.40;;
61673;SDS011;47573;43.832;5.974;2023-05-10T07:54:33;25.87;;;15.97;;
61673;SDS011;47573;43.832;5.974;2023-05-10T08:01:13;21.58;;;13.52;;
61673;SDS011;47573;43.832;5.974;2023-05-10T08:07:54;20.97;;;13.17;;
61673;SDS011;47573;43.832;5.974;2023-05-10T08:14:36;20.83;;;13.85;;
61673;SDS011;47573;43.832;5.974;2023-05-10T08:21:16;24.02;;;14.88;;
61673;SDS011;47573;43.832;5.974;2023-05-10T08:27:57;22.90;;;14.60;;
61673;SDS011;47573;43.832;5.974;2023-05-10T08:34:39;24.70;;;14.70;;
61673;SDS011;47573;43.832;5.974;2023-05-10T08:41:19;21.52;;;14.40;;
61673;SDS011;47573;43.832;5.974;2023-05-10T08:48:01;21.52;;;13.95;;
61673;SDS011;47573;43.832;5.974;2023-05-10T08:54:43;20.83;;;13.52;;
61673;SDS011;47573;43.832;5.974;2023-05-10T09:01:24;19.90;;;13.60;;
61673;SDS011;47573;43.832;5.974;2023-05-10T09:08:05;19.90;;;13.10;;
61673;SDS011;47573;43.832;5.974;2023-05-10T09:14:49;19.60;;;12.80;;
61673;SDS011;47573;43.832;5.974;2023-05-10T09:21:32;19.95;;;12.40;;
61673;SDS011;47573;43.832;5.974;2023-05-10T09:28:13;22.13;;;11.30;;
61673;SDS011;47573;43.832;5.974;2023-05-10T09:34:55;19.70;;;12.27;;
61673;SDS011;47573;43.832;5.974;2023-05-10T09:41:35;17.15;;;12.00;;
61673;SDS011;47573;43.832;5.974;2023-05-10T09:48:16;16.17;;;10.50;;
61673;SDS011;47573;43.832;5.974;2023-05-10T09:54:58;17.70;;;10.57;;
61673;SDS011;47573;43.832;5.974;2023-05-10T10:01:38;12.20;;;7.90;;
61673;SDS011;47573;43.832;5.974;2023-05-10T10:08:19;12.10;;;7.65;;
61673;SDS011;47573;43.832;5.974;2023-05-10T10:15:01;17.60;;;8.30;;
61673;SDS011;47573;43.832;5.974;2023-05-10T10:21:42;10.00;;;6.00;;
61673;SDS011;47573;43.832;5.974;2023-05-10T10:28:24;8.87;;;5.70;;
61673;SDS011;47573;43.832;5.974;2023-05-10T10:35:15;9.07;;;6.18;;
61673;SDS011;47573;43.832;5.974;2023-05-10T10:41:57;7.15;;;5.22;;
61673;SDS011;47573;43.832;5.974;2023-05-10T10:48:38;13.40;;;8.55;;
61673;SDS011;47573;43.832;5.974;2023-05-10T10:55:20;78.93;;;44.25;;
61673;SDS011;47573;43.832;5.974;2023-05-10T11:13:15;119.30;;;66.75;;
61673;SDS011;47573;43.832;5.974;2023-05-10T11:20:03;111.17;;;60.97;;
61673;SDS011;47573;43.832;5.974;2023-05-10T11:26:49;109.47;;;59.15;;
61673;SDS011;47573;43.832;5.974;2023-05-10T11:33:31;107.00;;;57.88;;
61673;SDS011;47573;43.832;5.974;2023-05-10T11:40:22;102.47;;;56.78;;
61673;SDS011;47573;43.832;5.974;2023-05-10T11:47:03;98.90;;;55.10;;
61673;SDS011;47573;43.832;5.974;2023-05-10T11:53:45;100.13;;;55.17;;
61673;SDS011;47573;43.832;5.974;2023-05-10T12:00:25;101.63;;;54.53;;
61673;SDS011;47573;43.832;5.974;2023-05-10T12:07:06;89.90;;;50.35;;
61673;SDS011;47573;43.832;5.974;2023-05-10T12:13:48;88.75;;;49.63;;
61673;SDS011;47573;43.832;5.974;2023-05-10T12:20:28;87.87;;;47.87;;
61673;SDS011;47573;43.832;5.974;2023-05-10T12:27:09;86.00;;;49.00;;
61673;SDS011;47573;43.832;5.974;2023-05-10T12:33:51;82.13;;;47.97;;
61673;SDS011;47573;43.832;5.974;2023-05-10T12:40:31;75.22;;;46.28;;
61673;SDS011;47573;43.832;5.974;2023-05-10T12:47:12;79.17;;;46.57;;
61673;SDS011;47573;43.832;5.974;2023-05-10T12:53:54;78.67;;;45.87;;
61673;SDS011;47573;43.832;5.974;2023-05-10T13:00:34;76.10;;;44.53;;
61673;SDS011;47573;43.832;5.974;2023-05-10T13:07:15;71.57;;;43.47;;
61673;SDS011;47573;43.832;5.974;2023-05-10T13:13:56;71.70;;;42.33;;
61673;SDS011;47573;43.832;5.974;2023-05-10T13:20:37;73.47;;;41.90;;
61673;SDS011;47573;43.832;5.974;2023-05-10T13:27:18;72.05;;;41.88;;
61673;SDS011;47573;43.832;5.974;2023-05-10T13:34:00;68.95;;;40.45;;
61673;SDS011;47573;43.832;5.974;2023-05-10T13:40:40;67.93;;;40.10;;
61673;SDS011;47573;43.832;5.974;2023-05-10T13:47:21;63.43;;;37.37;;
61673;SDS011;47573;43.832;5.974;2023-05-10T13:54:03;65.32;;;39.10;;
61673;SDS011;47573;43.832;5.974;2023-05-10T14:00:43;60.07;;;36.00;;
61673;SDS011;47573;43.832;5.974;2023-05-10T14:07:24;58.47;;;34.93;;
61673;SDS011;47573;43.832;5.974;2023-05-10T14:14:06;61.13;;;36.67;;
61673;SDS011;47573;43.832;5.974;2023-05-10T14:20:46;60.83;;;36.47;;
61673;SDS011;47573;43.832;5.974;2023-05-10T14:27:27;60.92;;;36.83;;
61673;SDS011;47573;43.832;5.974;2023-05-10T14:34:09;67.90;;;40.92;;
61673;SDS011;47573;43.832;5.974;2023-05-10T14:40:49;69.03;;;42.57;;
61673;SDS011;47573;43.832;5.974;2023-05-10T14:47:30;78.60;;;52.10;;
61673;SDS011;47573;43.832;5.974;2023-05-10T14:54:12;80.85;;;52.63;;
61673;SDS011;47573;43.832;5.974;2023-05-10T15:00:52;107.07;;;69.50;;
61673;SDS011;47573;43.832;5.974;2023-05-10T15:07:33;112.50;;;76.03;;
61673;SDS011;47573;43.832;5.974;2023-05-10T15:14:14;115.70;;;76.17;;
61673;SDS011;47573;43.832;5.974;2023-05-10T15:20:55;113.33;;;76.43;;
61673;SDS011;47573;43.832;5.974;2023-05-10T15:27:35;119.67;;;79.10;;
61673;SDS011;47573;43.832;5.974;2023-05-10T15:34:17;84.53;;;56.67;;
61673;SDS011;47573;43.832;5.974;2023-05-10T15:40:58;72.50;;;45.45;;
61673;SDS011;47573;43.832;5.974;2023-05-10T15:47:39;87.77;;;55.97;;
61673;SDS011;47573;43.832;5.974;2023-05-10T15:54:21;111.32;;;66.32;;
61673;SDS011;47573;43.832;5.974;2023-05-10T16:01:01;96.27;;;56.03;;
61673;SDS011;47573;43.832;5.974;2023-05-10T16:07:42;135.57;;;79.78;;
61673;SDS011;47573;43.832;5.974;2023-05-10T16:14:24;133.20;;;76.60;;
61673;SDS011;47573;43.832;5.974;2023-05-10T16:21:04;138.53;;;75.10;;
61673;SDS011;47573;43.832;5.974;2023-05-10T16:27:45;127.95;;;72.22;;
61673;SDS011;47573;43.832;5.974;2023-05-10T16:34:27;132.53;;;75.17;;
61673;SDS011;47573;43.832;5.974;2023-05-10T16:41:07;97.07;;;62.17;;
61673;SDS011;47573;43.832;5.974;2023-05-10T16:47:48;31.30;;;20.27;;
61673;SDS011;47573;43.832;5.974;2023-05-10T16:54:30;34.30;;;21.17;;
61673;SDS011;47573;43.832;5.974;2023-05-10T17:01:10;30.38;;;18.08;;
61673;SDS011;47573;43.832;5.974;2023-05-10T17:07:51;102.10;;;62.50;;
61673;SDS011;47573;43.832;5.974;2023-05-10T17:14:32;48.77;;;30.83;;
61673;SDS011;47573;43.832;5.974;2023-05-10T17:21:13;56.72;;;33.53;;
61673;SDS011;47573;43.832;5.974;2023-05-10T17:27:53;40.17;;;26.05;;
61673;SDS011;47573;43.832;5.974;2023-05-10T17:34:35;43.90;;;25.55;;
61673;SDS011;47573;43.832;5.974;2023-05-10T17:41:17;33.10;;;19.70;;
61673;SDS011;47573;43.832;5.974;2023-05-10T17:47:58;64.27;;;41.67;;
61673;SDS011;47573;43.832;5.974;2023-05-10T17:54:39;45.72;;;26.25;;
61673;SDS011;47573;43.832;5.974;2023-05-10T18:01:20;26.70;;;15.50;;
61673;SDS011;47573;43.832;5.974;2023-05-10T18:08:00;61.57;;;41.70;;
61673;SDS011;47573;43.832;5.974;2023-05-10T18:14:42;59.70;;;35.28;;
61673;SDS011;47573;43.832;5.974;2023-05-10T18:21:23;26.35;;;15.50;;
61673;SDS011;47573;43.832;5.974;2023-05-10T18:28:04;24.60;;;16.67;;
61673;SDS011;47573;43.832;5.974;2023-05-10T18:34:45;118.15;;;70.93;;
61673;SDS011;47573;43.832;5.974;2023-05-10T18:41:26;84.35;;;46.58;;
61673;SDS011;47573;43.832;5.974;2023-05-10T18:48:07;91.25;;;49.55;;
61673;SDS011;47573;43.832;5.974;2023-05-10T18:54:49;48.58;;;24.80;;
61673;SDS011;47573;43.832;5.974;2023-05-10T19:01:29;52.43;;;27.93;;
61673;SDS011;47573;43.832;5.974;2023-05-10T19:08:10;63.77;;;34.03;;
61673;SDS011;47573;43.832;5.974;2023-05-10T19:14:51;72.47;;;39.30;;
61673;SDS011;47573;43.832;5.974;2023-05-10T19:21:32;119.38;;;53.65;;
61673;SDS011;47573;43.832;5.974;2023-05-10T19:28:13;106.50;;;62.00;;
61673;SDS011;47573;43.832;5.974;2023-05-10T19:34:54;176.45;;;106.15;;
61673;SDS011;47573;43.832;5.974;2023-05-10T19:41:35;183.43;;;114.03;;
61673;SDS011;47573;43.832;5.974;2023-05-10T19:48:16;203.10;;;129.67;;
61673;SDS011;47573;43.832;5.974;2023-05-10T19:54:57;206.68;;;134.95;;
61673;SDS011;47573;43.832;5.974;2023-05-10T20:01:38;208.77;;;133.02;;
61673;SDS011;47573;43.832;5.974;2023-05-10T20:08:18;266.70;;;180.20;;
61673;SDS011;47573;43.832;5.974;2023-05-10T20:15:00;240.55;;;159.38;;
61673;SDS011;47573;43.832;5.974;2023-05-10T20:21:41;227.35;;;149.75;;
61673;SDS011;47573;43.832;5.974;2023-05-10T20:28:22;226.43;;;149.20;;
61673;SDS011;47573;43.832;5.974;2023-05-10T20:35:05;250.43;;;174.03;;
61673;SDS011;47573;43.832;5.974;2023-05-10T20:41:46;244.45;;;165.13;;
61673;SDS011;47573;43.832;5.974;2023-05-10T20:48:27;294.35;;;217.65;;
61673;SDS011;47573;43.832;5.974;2023-05-10T20:55:09;310.90;;;227.40;;
61673;SDS011;47573;43.832;5.974;2023-05-10T21:01:49;320.80;;;238.33;;
61673;SDS011;47573;43.832;5.974;2023-05-10T21:08:30;312.33;;;236.38;;
61673;SDS011;47573;43.832;5.974;2023-05-10T21:15:12;324.13;;;239.00;;
61673;SDS011;47573;43.832;5.974;2023-05-10T21:21:52;314.52;;;233.90;;
61673;SDS011;47573;43.832;5.974;2023-05-10T21:28:33;286.90;;;210.37;;
61673;SDS011;47573;43.832;5.974;2023-05-10T21:35:14;267.75;;;191.32;;
61673;SDS011;47573;43.832;5.974;2023-05-10T21:41:55;256.33;;;184.50;;
61673;SDS011;47573;43.832;5.974;2023-05-10T21:48:36;282.23;;;204.13;;
61673;SDS011;47573;43.832;5.974;2023-05-10T21:55:18;270.15;;;196.65;;
61673;SDS011;47573;43.832;5.974;2023-05-10T22:01:58;265.92;;;199.30;;
61673;SDS011;47573;43.832;5.974;2023-05-10T22:08:39;266.48;;;191.27;;
61673;SDS011;47573;43.832;5.974;2023-05-10T22:15:21;243.13;;;173.17;;
61673;SDS011;47573;43.832;5.974;2023-05-10T22:22:01;238.67;;;170.90;;
61673;SDS011;47573;43.832;5.974;2023-05-10T22:28:42;231.60;;;166.35;;
61673;SDS011;47573;43.832;5.974;2023-05-10T22:35:24;222.80;;;157.05;;
61673;SDS011;47573;43.832;5.974;2023-05-10T22:42:05;233.87;;;164.83;;
61673;SDS011;47573;43.832;5.974;2023-05-10T22:48:45;229.93;;;165.87;;
61673;SDS011;47573;43.832;5.974;2023-05-10T22:55:28;233.93;;;163.30;;
61673;SDS011;47573;43.832;5.974;2023-05-10T23:02:09;210.65;;;148.70;;
61673;SDS011;47573;43.832;5.974;2023-05-10T23:08:50;216.02;;;152.95;;
61673;SDS011;47573;43.832;5.974;2023-05-10T23:15:32;220.63;;;152.43;;
61673;SDS011;47573;43.832;5.974;2023-05-10T23:22:12;213.23;;;150.27;;
61673;SDS011;47573;43.832;5.974;2023-05-10T23:28:53;208.85;;;145.77;;
61673;SDS011;47573;43.832;5.974;2023-05-10T23:35:35;205.30;;;145.77;;
61673;SDS011;47573;43.832;5.974;2023-05-10T23:42:15;209.03;;;147.37;;
61673;SDS011;47573;43.832;5.974;2023-05-10T23:48:56;204.53;;;144.53;;
61673;SDS011;47573;43.832;5.974;2023-05-10T23:55:38;204.33;;;141.23;;
